createdAt,value
2023-04-02T00:01:02.659Z,7.76
2023-04-02T00:03:44.005Z,7.77
2023-04-02T00:06:30.576Z,7.76
2023-04-02T00:09:17.372Z,7.77
2023-04-02T00:11:46.631Z,7.77
2023-04-02T00:14:17.632Z,7.74
2023-04-02T00:16:46.073Z,7.68
2023-04-02T00:19:23.246Z,7.66
2023-04-02T00:21:52.355Z,7.64
2023-04-02T00:24:22.337Z,7.61
2023-04-02T00:26:52.222Z,7.61
2023-04-02T00:29:21.251Z,7.62
2023-04-02T00:31:54.029Z,7.64
2023-04-02T00:34:36.782Z,7.67
2023-04-02T00:37:04.985Z,7.69
2023-04-02T00:39:41.812Z,7.70
2023-04-02T00:42:12.761Z,7.67
2023-04-02T00:44:44.366Z,7.63
2023-04-02T00:47:33.703Z,7.59
2023-04-02T00:50:07.855Z,7.59
2023-04-02T00:52:36.730Z,7.60
2023-04-02T00:55:37.071Z,7.62
2023-04-02T00:58:19.314Z,7.60
2023-04-02T01:00:51.613Z,7.57
2023-04-02T01:03:19.568Z,7.57
2023-04-02T01:05:57.062Z,7.52
2023-04-02T01:08:44.163Z,7.50
2023-04-02T01:11:24.195Z,7.46
2023-04-02T01:14:12.818Z,7.44
2023-04-02T01:17:15.667Z,7.43
2023-04-02T01:19:58.625Z,7.41
2023-04-02T01:22:37.202Z,7.37
2023-04-02T01:25:06.624Z,7.35
2023-04-02T01:27:52.449Z,7.30
2023-04-02T01:30:21.207Z,7.24
2023-04-02T01:32:50.013Z,7.24
2023-04-02T01:35:18.339Z,7.26
2023-04-02T01:37:59.374Z,7.26
2023-04-02T01:40:53.646Z,7.22
2023-04-02T01:43:30.460Z,7.18
2023-04-02T01:45:59.292Z,7.16
2023-04-02T01:48:30.506Z,7.14
2023-04-02T01:51:00.602Z,7.15
2023-04-02T01:53:31.511Z,7.15
2023-04-02T01:56:02.785Z,7.16
2023-04-02T01:58:32.950Z,7.16
2023-04-02T02:01:26.430Z,7.16
2023-04-02T02:03:54.947Z,7.17
2023-04-02T02:06:24.044Z,7.18
2023-04-02T02:09:01.448Z,7.21
2023-04-02T02:11:32.039Z,7.25
2023-04-02T02:14:02.546Z,7.21
2023-04-02T02:16:32.510Z,7.22
2023-04-02T02:19:04.948Z,7.23
2023-04-02T02:21:43.623Z,7.23
2023-04-02T02:24:24.671Z,7.18
2023-04-02T02:27:03.121Z,7.18
2023-04-02T02:29:35.509Z,7.18
2023-04-02T02:32:05.734Z,7.15
2023-04-02T02:34:48.369Z,7.17
2023-04-02T02:37:23.898Z,7.16
2023-04-02T02:39:56.292Z,7.17
2023-04-02T02:42:47.547Z,7.16
2023-04-02T02:45:20.130Z,7.17
2023-04-02T02:47:50.414Z,7.15
2023-04-02T02:50:23.102Z,7.12
2023-04-02T02:52:55.061Z,7.13
2023-04-02T02:55:32.726Z,7.12
2023-04-02T03:07:42.843Z,6.94
2023-04-02T03:10:17.960Z,6.90
2023-04-02T03:12:59.184Z,6.85
2023-04-02T03:15:49.932Z,6.83
2023-04-02T03:18:36.610Z,6.80
2023-04-02T03:21:14.342Z,6.76
2023-04-02T03:23:46.139Z,6.76
2023-04-02T03:26:26.675Z,6.76
2023-04-02T03:29:17.864Z,6.77
2023-04-02T03:31:51.500Z,6.77
2023-04-02T03:34:26.898Z,6.76
2023-04-02T03:37:18.500Z,6.77
2023-04-02T03:40:07.580Z,6.74
2023-04-02T03:42:48.436Z,6.68
2023-04-02T03:45:24.250Z,6.67
2023-04-02T03:48:03.812Z,6.65
2023-04-02T03:50:41.399Z,6.68
2023-04-02T03:53:09.650Z,6.67
2023-04-02T03:55:40.073Z,6.64
2023-04-02T03:58:23.301Z,6.60
2023-04-02T04:01:17.580Z,6.58
2023-04-02T04:03:51.080Z,6.55
2023-04-02T04:06:29.139Z,6.55
2023-04-02T04:09:20.919Z,6.58
2023-04-02T04:11:52.943Z,6.60
2023-04-02T04:14:30.972Z,6.62
2023-04-02T04:17:15.568Z,6.60
2023-04-02T04:19:49.634Z,6.61
2023-04-02T04:22:20.373Z,6.61
2023-04-02T04:24:53.283Z,6.60
2023-04-02T04:27:33.780Z,6.64
2023-04-02T04:30:24.556Z,6.64
2023-04-02T04:32:58.877Z,6.63
2023-04-02T04:35:37.851Z,6.61
2023-04-02T04:38:27.648Z,6.59
2023-04-02T04:41:00.271Z,6.58
2023-04-02T04:43:44.258Z,6.55
2023-04-02T04:46:20.748Z,6.55
2023-04-02T04:49:08.333Z,6.57
2023-04-02T04:51:47.846Z,6.60
2023-04-02T04:54:17.310Z,6.61
2023-04-02T04:56:53.816Z,6.62
2023-04-02T04:59:28.452Z,6.62
2023-04-02T05:02:17.504Z,6.60
2023-04-02T05:04:51.749Z,6.61
2023-04-02T05:07:30.323Z,6.59
2023-04-02T05:10:12.392Z,6.55
2023-04-02T05:12:48.763Z,6.54
2023-04-02T05:15:33.377Z,6.54
2023-04-02T05:18:45.342Z,6.52
2023-04-02T05:21:34.360Z,6.51
2023-04-02T05:24:48.405Z,6.55
2023-04-02T05:27:46.321Z,6.56
2023-04-02T05:30:53.363Z,6.51
2023-04-02T05:33:28.409Z,6.48
2023-04-02T05:36:15.389Z,6.45
2023-04-02T05:38:52.406Z,6.41
2023-04-02T05:41:49.368Z,6.43
2023-04-02T05:44:35.017Z,6.41
2023-04-02T05:47:20.357Z,6.40
2023-04-02T05:50:11.434Z,6.39
2023-04-02T05:53:08.400Z,6.35
2023-04-02T05:55:52.841Z,6.31
2023-04-02T05:59:04.421Z,6.26
2023-04-02T06:02:10.453Z,6.20
2023-04-02T06:05:07.556Z,6.21
2023-04-02T06:07:49.918Z,6.24
2023-04-02T06:10:29.448Z,6.22
2023-04-02T06:13:06.880Z,6.22
2023-04-02T06:15:41.409Z,6.24
2023-04-02T06:25:54.519Z,6.28
2023-04-02T06:28:36.189Z,6.38
2023-04-02T06:31:12.170Z,6.52
2023-04-02T06:33:40.316Z,6.58
2023-04-02T06:36:12.431Z,6.59
2023-04-02T06:38:43.269Z,6.57
2023-04-02T06:41:19.741Z,6.52
2023-04-02T06:44:17.550Z,6.53
2023-04-02T06:46:59.351Z,6.47
2023-04-02T06:49:57.726Z,6.39
2023-04-02T06:52:34.907Z,6.39
2023-04-02T06:55:46.928Z,6.33
2023-04-02T06:58:19.499Z,6.28
2023-04-02T07:00:50.235Z,6.19
2023-04-02T07:03:28.978Z,6.13
2023-04-02T07:06:02.594Z,6.14
2023-04-02T07:08:32.659Z,6.16
2023-04-02T07:11:01.149Z,6.19
2023-04-02T07:13:29.986Z,6.20
2023-04-02T07:15:59.350Z,6.21
2023-04-02T07:18:30.930Z,6.20
2023-04-02T07:21:00.386Z,6.21
2023-04-02T07:23:29.114Z,6.20
2023-04-02T07:25:58.679Z,6.17
2023-04-02T07:28:26.781Z,6.17
2023-04-02T07:30:56.184Z,6.13
2023-04-02T07:33:27.283Z,6.09
2023-04-02T07:35:57.545Z,6.02
2023-04-02T07:38:26.005Z,5.94
2023-04-02T07:40:54.466Z,5.89
2023-04-02T07:43:23.323Z,5.88
2023-04-02T07:45:51.950Z,5.86
2023-04-02T07:48:20.017Z,5.84
2023-04-02T07:50:48.107Z,5.81
2023-04-02T07:53:31.717Z,5.74
2023-04-02T07:56:02.458Z,5.70
2023-04-02T07:58:32.374Z,5.70
2023-04-02T08:01:01.909Z,5.67
2023-04-02T08:03:30.230Z,5.61
2023-04-02T08:05:59.342Z,5.61
2023-04-02T08:08:27.418Z,5.65
2023-04-02T08:10:55.805Z,5.72
2023-04-02T08:13:23.975Z,5.78
2023-04-02T08:15:52.241Z,5.84
2023-04-02T08:18:23.729Z,5.93
2023-04-02T08:20:52.894Z,6.04
2023-04-02T08:23:21.888Z,6.16
2023-04-02T08:25:51.016Z,6.18
2023-04-02T08:28:19.483Z,6.16
2023-04-02T08:30:51.668Z,6.19
2023-04-02T08:33:19.950Z,6.24
2023-04-02T08:35:49.754Z,6.19
2023-04-02T08:38:20.053Z,6.16
2023-04-02T08:40:54.849Z,6.11
2023-04-02T08:43:53.453Z,6.04
2023-04-02T08:46:29.703Z,5.99
2023-04-02T08:49:04.850Z,5.97
2023-04-02T08:51:36.546Z,5.92
2023-04-02T08:54:27.807Z,5.86
2023-04-02T08:57:04.583Z,5.82
2023-04-02T08:59:38.966Z,5.79
2023-04-02T09:02:25.771Z,5.77
2023-04-02T09:04:56.299Z,5.77
2023-04-02T09:07:26.657Z,5.74
2023-04-02T09:09:55.282Z,5.73
2023-04-02T09:12:29.805Z,5.69
2023-04-02T09:15:20.572Z,5.72
2023-04-02T09:17:54.048Z,5.76
2023-04-02T09:20:26.581Z,5.87
2023-04-02T09:22:56.707Z,5.95
2023-04-02T09:25:27.996Z,5.96
2023-04-02T09:27:58.901Z,5.93
2023-04-02T09:30:54.589Z,5.92
2023-04-02T09:33:42.049Z,5.96
2023-04-02T09:36:38.192Z,6.05
2023-04-02T09:39:17.768Z,6.09
2023-04-02T09:41:55.830Z,6.09
2023-04-02T09:44:31.442Z,6.12
2023-04-02T09:47:10.804Z,6.16
2023-04-02T09:49:40.282Z,6.17
2023-04-02T09:52:16.873Z,6.18
2023-04-02T09:54:46.105Z,6.19
2023-04-02T09:57:27.421Z,6.18
2023-04-02T10:03:07.104Z,6.16
2023-04-02T10:08:21.566Z,6.12
2023-04-02T10:10:53.240Z,6.17
2023-04-02T10:13:33.883Z,6.18
2023-04-02T10:16:11.756Z,6.13
2023-04-02T10:18:52.040Z,6.06
2023-04-02T10:21:25.942Z,6.01
2023-04-02T10:23:55.915Z,5.95
2023-04-02T10:26:36.389Z,5.95
2023-04-02T10:29:25.295Z,5.86
2023-04-02T10:32:00.811Z,5.80
2023-04-02T10:34:54.356Z,5.80
2023-04-02T10:37:44.071Z,5.82
2023-04-02T10:40:36.437Z,5.91
2023-04-02T10:43:42.486Z,6.01
2023-04-02T10:46:29.315Z,6.08
2023-04-02T10:49:11.716Z,6.04
2023-04-02T10:51:54.385Z,5.97
2023-04-02T10:54:38.767Z,6.01
2023-04-02T10:57:28.606Z,6.03
2023-04-02T11:00:11.053Z,6.04
2023-04-02T11:03:08.725Z,6.04
2023-04-02T11:05:53.712Z,6.02
2023-04-02T11:08:34.049Z,6.03
2023-04-02T11:11:16.060Z,5.97
2023-04-02T11:14:15.191Z,5.90
2023-04-02T11:16:44.773Z,5.76
2023-04-02T11:19:18.873Z,5.71
2023-04-02T11:21:59.362Z,5.63
2023-04-02T11:24:34.590Z,5.51
2023-04-02T11:27:11.839Z,5.50
2023-04-02T11:29:44.591Z,5.54
2023-04-02T11:32:20.897Z,5.51
2023-04-02T11:34:56.476Z,5.46
2023-04-02T11:37:45.299Z,5.39
2023-04-02T11:40:16.646Z,5.37
2023-04-02T11:42:52.969Z,5.40
2023-04-02T11:45:24.156Z,5.36
2023-04-02T11:48:01.420Z,5.36
2023-04-02T11:50:44.955Z,5.27
2023-04-02T11:53:13.816Z,5.27
2023-04-02T11:55:46.798Z,5.32
2023-04-02T11:58:33.355Z,5.38
2023-04-02T12:01:34.341Z,5.36
2023-04-02T12:04:11.898Z,5.33
2023-04-02T12:07:07.569Z,5.29
2023-04-02T12:10:18.721Z,5.26
2023-04-02T12:12:47.300Z,5.22
2023-04-02T12:15:38.193Z,5.18
2023-04-02T12:18:19.646Z,5.15
2023-04-02T12:20:56.565Z,5.17
2023-04-02T12:23:32.507Z,5.32
2023-04-02T12:26:03.610Z,5.50
2023-04-02T12:28:34.104Z,5.61
2023-04-02T12:31:15.109Z,5.70
2023-04-02T12:33:43.201Z,5.69
2023-04-02T12:36:14.769Z,5.70
2023-04-02T12:38:48.282Z,5.71
2023-04-02T12:41:24.873Z,5.74
2023-04-02T12:44:06.601Z,5.70
2023-04-02T12:46:37.994Z,5.72
2023-04-02T12:49:22.121Z,5.79
2023-04-02T12:51:53.112Z,5.78
2023-04-02T12:54:21.802Z,5.73
2023-04-02T12:56:50.815Z,5.78
2023-04-02T12:59:27.856Z,5.83
2023-04-02T13:02:02.586Z,5.87
2023-04-02T13:04:30.722Z,5.84
2023-04-02T13:06:59.625Z,5.82
2023-04-02T13:09:46.842Z,5.73
2023-04-02T13:12:41.530Z,5.68
2023-04-02T13:15:43.775Z,5.59
2023-04-02T13:18:18.911Z,5.53
2023-04-02T13:20:58.854Z,5.53
2023-04-02T13:23:29.966Z,5.54
2023-04-02T13:26:12.033Z,5.57
2023-04-02T13:28:40.104Z,5.64
2023-04-02T13:31:16.314Z,5.74
2023-04-02T13:33:44.349Z,5.86
2023-04-02T13:36:15.898Z,6.01
2023-04-02T13:38:43.959Z,6.08
2023-04-02T13:41:29.680Z,6.11
2023-04-02T13:44:01.205Z,6.16
2023-04-02T13:46:32.238Z,5.98
2023-04-02T13:49:00.970Z,5.98
2023-04-02T13:51:49.576Z,6.00
2023-04-02T13:54:30.522Z,6.09
2023-04-02T13:56:58.554Z,6.27
2023-04-02T13:59:27.208Z,6.38
2023-04-02T14:01:59.742Z,6.50
2023-04-02T14:04:31.706Z,6.64
2023-04-02T14:07:12.402Z,6.56
2023-04-02T14:10:01.847Z,6.32
2023-04-02T14:12:39.271Z,6.27
2023-04-02T14:15:33.419Z,6.23
2023-04-02T14:18:38.181Z,6.01
2023-04-02T14:21:21.322Z,5.79
2023-04-02T14:23:55.678Z,5.63
2023-04-02T14:26:39.863Z,5.59
2023-04-02T14:29:21.901Z,5.45
2023-04-02T14:31:53.238Z,5.34
2023-04-02T14:34:43.413Z,5.26
2023-04-02T14:37:35.546Z,5.17
2023-04-02T14:40:07.815Z,5.09
2023-04-02T14:43:19.113Z,5.05
2023-04-02T14:45:59.003Z,5.04
2023-04-02T14:48:36.334Z,5.07
2023-04-02T14:51:27.667Z,5.08
2023-04-02T14:54:17.554Z,5.10
2023-04-02T14:56:49.297Z,5.09
2023-04-02T14:59:24.068Z,5.03
2023-04-02T15:02:18.564Z,4.96
2023-04-02T15:04:59.523Z,4.93
2023-04-02T15:07:39.137Z,4.88
2023-04-02T15:10:19.146Z,4.93
2023-04-02T15:12:49.034Z,4.95
2023-04-02T15:15:56.462Z,4.99
2023-04-02T15:18:25.618Z,5.00
2023-04-02T15:25:49.284Z,5.02
2023-04-02T15:28:29.357Z,4.94
2023-04-02T15:31:03.790Z,4.91
2023-04-02T15:33:38.011Z,4.90
2023-04-02T15:36:31.516Z,4.82
2023-04-02T15:39:27.677Z,4.68
2023-04-02T15:42:15.491Z,4.56
2023-04-02T15:45:10.023Z,4.51
2023-04-02T15:47:51.361Z,4.49
2023-04-02T15:50:39.209Z,4.51
2023-04-02T15:53:22.372Z,4.51
2023-04-02T15:55:55.935Z,4.49
2023-04-02T15:58:45.700Z,4.43
2023-04-02T16:01:37.426Z,4.32
2023-04-02T16:04:34.289Z,4.22
2023-04-02T16:07:24.770Z,4.08
2023-04-02T16:10:11.596Z,3.93
2023-04-02T16:12:41.054Z,3.89
2023-04-02T16:15:23.598Z,3.89
2023-04-02T16:22:29.686Z,3.67
2023-04-02T16:25:02.222Z,3.60
2023-04-02T16:27:38.443Z,3.50
2023-04-02T16:30:45.604Z,3.52
2023-04-02T16:33:22.494Z,3.58
2023-04-02T16:35:56.968Z,3.48
2023-04-02T16:38:54.864Z,3.40
2023-04-02T16:41:38.598Z,3.43
2023-04-02T16:44:29.514Z,3.44
2023-04-02T16:47:19.141Z,3.49
2023-04-02T16:50:13.825Z,3.48
2023-04-02T16:52:50.838Z,3.50
2023-04-02T16:55:23.689Z,3.44
2023-04-02T16:58:10.657Z,3.40
2023-04-02T17:00:48.516Z,3.32
2023-04-02T17:03:35.283Z,3.31
2023-04-02T17:06:08.429Z,3.30
2023-04-02T17:08:43.823Z,3.25
2023-04-02T17:11:29.708Z,3.23
2023-04-02T17:14:07.548Z,3.22
2023-04-02T17:16:43.129Z,3.28
2023-04-02T17:19:16.170Z,3.30
2023-04-02T17:21:48.655Z,3.34
2023-04-02T17:24:42.805Z,3.32
2023-04-02T17:27:28.933Z,3.23
2023-04-02T17:30:19.394Z,3.15
2023-04-02T17:32:47.375Z,3.14
2023-04-02T17:35:21.465Z,3.13
2023-04-02T17:38:01.163Z,3.09
2023-04-02T17:40:31.797Z,3.06
2023-04-02T17:43:05.636Z,3.07
2023-04-02T17:45:56.494Z,3.08
2023-04-02T17:48:35.645Z,3.04
2023-04-02T17:51:35.726Z,2.98
2023-04-02T17:54:25.767Z,2.94
2023-04-02T17:57:00.662Z,2.94
2023-04-02T18:00:04.617Z,2.91
2023-04-02T18:02:56.102Z,3.00
2023-04-02T18:05:32.695Z,2.94
2023-04-02T18:08:12.578Z,2.95
2023-04-02T18:10:46.112Z,2.98
2023-04-02T18:13:36.610Z,2.98
2023-04-02T18:16:43.106Z,3.00
2023-04-02T18:19:17.163Z,3.01
2023-04-02T18:22:14.338Z,3.01
2023-04-02T18:24:59.361Z,3.01
2023-04-02T18:27:40.692Z,3.04
2023-04-02T18:30:39.218Z,3.06
2023-04-02T18:33:40.400Z,3.07
2023-04-02T18:36:45.942Z,3.04
2023-04-02T18:39:19.291Z,2.96
2023-04-02T18:42:01.748Z,2.95
2023-04-02T18:44:50.970Z,2.95
2023-04-02T18:47:30.835Z,3.02
2023-04-02T18:50:17.009Z,3.05
2023-04-02T18:52:45.486Z,3.05
2023-04-02T18:55:17.956Z,3.06
2023-04-02T18:57:51.603Z,3.08
2023-04-02T19:00:30.558Z,3.15
2023-04-02T19:03:07.587Z,3.20
2023-04-02T19:05:40.797Z,3.16
2023-04-02T19:08:15.776Z,3.15
2023-04-02T19:10:46.760Z,3.15
2023-04-02T19:13:19.565Z,3.16
2023-04-02T19:16:15.575Z,3.21
2023-04-02T19:18:43.607Z,3.23
2023-04-02T19:21:41.325Z,3.19
2023-04-02T19:24:40.150Z,3.15
2023-04-02T19:27:16.277Z,3.12
2023-04-02T19:30:18.137Z,3.12
2023-04-02T19:32:55.617Z,3.11
2023-04-02T19:35:31.624Z,3.13
2023-04-02T19:38:31.202Z,3.10
2023-04-02T19:41:24.542Z,3.10
2023-04-02T19:43:54.349Z,3.08
2023-04-02T19:46:25.796Z,3.07
2023-04-02T19:49:12.719Z,3.05
2023-04-02T19:51:40.676Z,3.08
2023-04-02T19:54:09.105Z,3.01
2023-04-02T19:56:37.293Z,3.00
2023-04-02T19:59:16.959Z,2.95
2023-04-02T20:01:47.188Z,2.89
2023-04-02T20:04:15.519Z,2.88
2023-04-02T20:06:44.130Z,2.91
2023-04-02T20:13:47.866Z,2.96
2023-04-02T20:16:16.743Z,2.88
2023-04-02T20:18:45.439Z,2.79
2023-04-02T20:21:13.511Z,2.81
2023-04-02T20:23:41.662Z,2.85
2023-04-02T20:26:10.635Z,2.92
2023-04-02T20:28:38.815Z,2.94
2023-04-02T20:31:09.490Z,2.89
2023-04-02T20:33:38.755Z,2.92
2023-04-02T20:36:10.447Z,2.95
2023-04-02T20:38:38.939Z,2.94
2023-04-02T20:41:08.473Z,2.93
2023-04-02T20:43:40.492Z,2.91
2023-04-02T20:46:12.291Z,2.81
2023-04-02T20:48:40.984Z,2.70
2023-04-02T20:51:11.451Z,2.65
2023-04-02T20:53:39.691Z,2.64
2023-04-02T20:56:14.538Z,2.67
2023-04-02T20:58:43.845Z,2.69
2023-04-02T21:01:18.542Z,2.65
2023-04-02T21:03:47.514Z,2.65
2023-04-02T21:06:17.741Z,2.63
2023-04-02T21:08:46.288Z,2.61
2023-04-02T21:11:14.956Z,2.58
2023-04-02T21:13:44.525Z,2.52
2023-04-02T21:16:19.447Z,2.46
2023-04-02T21:18:51.549Z,2.39
2023-04-02T21:21:25.515Z,2.37
2023-04-02T21:24:06.540Z,2.34
2023-04-02T21:26:41.609Z,2.30
2023-04-02T21:29:14.527Z,2.28
2023-04-02T21:31:46.592Z,2.28
2023-04-02T21:34:18.019Z,2.32
2023-04-02T21:36:50.480Z,2.37
2023-04-02T21:39:24.008Z,2.43
2023-04-02T21:41:54.161Z,2.46
2023-04-02T21:44:24.740Z,2.52
2023-04-02T21:46:55.597Z,2.59
2023-04-02T21:49:27.569Z,2.62
2023-04-02T21:51:59.586Z,2.71
2023-04-02T21:54:30.971Z,2.77
2023-04-02T21:57:02.592Z,2.85
2023-04-02T21:59:34.009Z,2.92
2023-04-02T22:02:05.575Z,2.98
2023-04-02T22:04:37.570Z,3.01
2023-04-02T22:07:09.589Z,3.01
2023-04-02T22:09:41.556Z,3.02
2023-04-02T22:12:12.589Z,3.02
2023-04-02T22:14:43.583Z,3.01
2023-04-02T22:24:46.534Z,3.03
2023-04-02T22:27:14.505Z,3.01
2023-04-02T22:29:42.575Z,2.99
2023-04-02T22:32:10.575Z,2.96
2023-04-02T22:34:45.720Z,2.94
2023-04-02T22:37:13.867Z,2.92
2023-04-02T22:39:42.021Z,2.89
2023-04-02T22:42:10.031Z,2.88
2023-04-02T22:44:38.062Z,2.84
2023-04-02T22:47:06.029Z,2.82
2023-04-02T22:49:34.024Z,2.80
2023-04-02T22:52:03.811Z,2.80
2023-04-02T22:54:31.990Z,2.77
2023-04-02T22:57:00.013Z,2.76
2023-04-02T22:59:28.541Z,2.76
2023-04-02T23:01:56.766Z,2.77
2023-04-02T23:04:25.091Z,2.75
2023-04-02T23:06:53.773Z,2.73
2023-04-02T23:09:22.213Z,2.70
2023-04-02T23:11:50.132Z,2.66
2023-04-02T23:14:18.191Z,2.63
2023-04-02T23:16:46.130Z,2.61
2023-04-02T23:19:14.151Z,2.57
2023-04-02T23:21:42.101Z,2.54
2023-04-02T23:24:12.627Z,2.52
2023-04-02T23:26:40.622Z,2.48
2023-04-02T23:29:09.902Z,2.43
2023-04-02T23:31:38.434Z,2.39
2023-04-02T23:34:06.882Z,2.35
2023-04-02T23:36:35.645Z,2.30
2023-04-02T23:39:11.500Z,2.26
2023-04-02T23:41:42.542Z,2.20
2023-04-02T23:44:11.208Z,2.14
2023-04-02T23:46:39.211Z,2.10
2023-04-02T23:49:08.394Z,2.07
2023-04-02T23:51:36.376Z,2.03
2023-04-02T23:54:04.328Z,1.97
2023-04-02T23:56:32.397Z,1.94
2023-04-02T23:59:00.772Z,1.89
